Time;durP1;ratioP1;P1;durP2;ratioP2;P2;SDS_P1;SDS_P2;PMS_P1;PMS_P2;Temp;Humidity;BMP_temperature;BMP_pressure;BME280_temperature;BME280_humidity;BME280_pressure;Samples;Min_cycle;Max_cycle;Signal;HPM_P1;HPM_P2
2021/12/18 00:01:02;;;;;;;19.40;12.67;;;6.50;95.70;;;;;;5065416;28;20491;-47
2021/12/18 00:03:29;;;;;;;16.00;11.33;;;6.40;95.90;;;;;;5058616;28;20480;-47
2021/12/18 00:05:55;;;;;;;19.97;13.90;;;6.40;96.00;;;;;;5063431;28;20998;-47
2021/12/18 00:08:22;;;;;;;18.33;13.63;;;6.30;96.00;;;;;;5067319;28;20478;-47
2021/12/18 00:10:50;;;;;;;15.70;11.90;;;6.30;96.10;;;;;;5081372;28;20506;-48
2021/12/18 00:13:17;;;;;;;15.50;11.93;;;6.20;95.90;;;;;;5068575;28;20847;-47
2021/12/18 00:15:43;;;;;;;19.90;12.13;;;6.10;96.10;;;;;;5066167;28;20478;-47
2021/12/18 00:18:10;;;;;;;16.07;12.20;;;6.10;96.30;;;;;;5062953;28;20856;-47
2021/12/18 00:20:38;;;;;;;19.30;13.50;;;6.10;96.20;;;;;;5070233;28;20496;-47
2021/12/18 00:23:05;;;;;;;15.63;11.70;;;6.00;96.30;;;;;;5070288;28;20483;-47
2021/12/18 00:25:33;;;;;;;15.63;11.87;;;6.00;96.40;;;;;;5063904;28;20488;-47
2021/12/18 00:28:01;;;;;;;19.67;13.03;;;5.90;96.00;;;;;;5068500;28;20495;-47
2021/12/18 00:30:27;;;;;;;22.13;13.00;;;5.90;96.10;;;;;;5063779;28;20841;-47
2021/12/18 00:32:54;;;;;;;18.00;14.10;;;5.80;95.80;;;;;;5069628;28;20487;-46
2021/12/18 00:35:21;;;;;;;16.93;11.87;;;5.80;96.00;;;;;;5065710;28;20480;-47
2021/12/18 00:37:48;;;;;;;16.53;12.50;;;5.80;95.90;;;;;;5060288;28;20514;-47
2021/12/18 00:40:20;;;;;;;21.03;13.50;;;5.70;95.80;;;;;;5069848;28;20463;-47
2021/12/18 00:42:50;;;;;;;20.70;14.07;;;5.70;96.00;;;;;;5074463;28;20496;-47
2021/12/18 00:45:19;;;;;;;19.30;11.27;;;5.60;95.90;;;;;;5067997;28;20807;-47
2021/12/18 00:47:47;;;;;;;14.57;11.10;;;5.50;95.70;;;;;;5064518;28;20481;-47
2021/12/18 00:50:18;;;;;;;17.40;11.37;;;5.50;95.80;;;;;;5066166;28;20488;-47
2021/12/18 00:52:46;;;;;;;16.23;12.83;;;5.40;95.90;;;;;;5060645;28;20529;-47
2021/12/18 00:55:13;;;;;;;23.40;17.50;;;5.40;95.70;;;;;;5064750;28;20480;-48
2021/12/18 00:57:40;;;;;;;22.20;13.97;;;5.20;95.50;;;;;;5061391;28;20481;-47
2021/12/18 01:00:10;;;;;;;17.10;13.13;;;5.10;95.80;;;;;;5067962;28;20479;-47
2021/12/18 01:02:42;;;;;;;26.93;17.90;;;5.10;96.00;;;;;;5061992;28;20928;-48
2021/12/18 01:05:09;;;;;;;40.47;22.20;;;5.00;96.00;;;;;;5067609;28;20490;-47
2021/12/18 01:07:36;;;;;;;41.83;24.83;;;5.00;96.00;;;;;;5067000;28;20487;-47
2021/12/18 01:10:14;;;;;;;33.47;20.93;;;5.00;96.00;;;;;;5072154;28;20481;-47
2021/12/18 01:12:44;;;;;;;19.60;13.53;;;5.00;96.10;;;;;;5049626;28;20474;-47
2021/12/18 01:15:18;;;;;;;22.47;12.60;;;4.90;96.10;;;;;;5084230;28;20483;-47
2021/12/18 01:23:16;;;;;;;18.70;12.23;;;4.90;96.00;;;;;;5057375;28;20807;-47
2021/12/18 01:25:43;;;;;;;20.90;14.03;;;4.80;95.90;;;;;;5065016;28;21186;-48
2021/12/18 01:28:09;;;;;;;25.27;13.60;;;4.80;95.90;;;;;;5069230;28;20478;-47
2021/12/18 01:30:36;;;;;;;19.20;12.00;;;4.80;95.80;;;;;;5068292;28;20517;-47
2021/12/18 01:33:04;;;;;;;19.97;14.43;;;4.70;95.70;;;;;;5069174;28;20502;-47
2021/12/18 01:35:32;;;;;;;17.37;12.20;;;4.60;95.60;;;;;;5064135;28;20498;-47
2021/12/18 01:37:58;;;;;;;17.87;12.50;;;4.60;95.90;;;;;;5065831;28;20491;-47
2021/12/18 01:40:26;;;;;;;21.90;13.60;;;4.50;96.20;;;;;;5058663;28;20479;-48
2021/12/18 01:46:04;;;;;;;20.30;14.80;;;4.50;95.70;;;;;;5070442;28;20474;-47
2021/12/18 01:51:21;;;;;;;21.27;14.33;;;4.40;95.30;;;;;;5071825;28;20884;-47
2021/12/18 01:53:50;;;;;;;18.00;11.03;;;4.30;95.40;;;;;;5076285;28;20489;-47
2021/12/18 01:56:17;;;;;;;23.47;13.37;;;4.20;95.60;;;;;;5071819;28;20478;-47
2021/12/18 01:58:45;;;;;;;24.50;15.27;;;4.20;95.70;;;;;;5074120;28;20474;-47
2021/12/18 02:01:13;;;;;;;23.20;13.83;;;4.20;95.70;;;;;;5065001;28;20475;-49
2021/12/18 02:03:41;;;;;;;20.27;12.60;;;4.20;95.40;;;;;;5067433;28;20490;-47
2021/12/18 02:06:08;;;;;;;20.37;13.47;;;4.20;95.50;;;;;;5067765;28;20494;-47
2021/12/18 02:08:36;;;;;;;23.57;14.10;;;4.10;95.80;;;;;;5062986;28;20686;-47
2021/12/18 02:11:13;;;;;;;19.77;13.57;;;4.10;95.80;;;;;;5057088;28;20556;-47
2021/12/18 02:14:04;;;;;;;16.57;11.63;;;4.10;95.60;;;;;;5063829;28;21019;-47
2021/12/18 02:22:15;;;;;;;18.80;11.90;;;4.00;95.50;;;;;;5054581;28;20490;-48
2021/12/18 02:24:42;;;;;;;19.50;12.67;;;4.00;95.60;;;;;;5057362;28;20955;-47
2021/12/18 02:27:09;;;;;;;19.47;13.87;;;3.90;95.30;;;;;;5048092;28;20477;-47
2021/12/18 02:29:38;;;;;;;20.73;12.80;;;3.90;95.20;;;;;;5083437;28;20959;-47
2021/12/18 02:32:06;;;;;;;21.33;13.77;;;3.80;95.00;;;;;;5067326;28;20471;-49
2021/12/18 02:34:34;;;;;;;20.07;12.00;;;3.70;95.00;;;;;;5071723;28;20839;-47
2021/12/18 02:37:05;;;;;;;17.07;11.47;;;3.60;95.10;;;;;;5071506;28;20570;-47
2021/12/18 02:42:20;;;;;;;16.40;11.73;;;3.60;95.50;;;;;;5046730;28;20485;-47
2021/12/18 02:44:46;;;;;;;19.13;12.50;;;3.60;95.40;;;;;;5069978;28;20491;-47
2021/12/18 02:47:14;;;;;;;21.63;14.00;;;3.60;95.60;;;;;;5069263;28;20475;-47
2021/12/18 02:49:44;;;;;;;20.10;13.10;;;3.50;95.70;;;;;;5072121;28;20477;-47
2021/12/18 02:52:11;;;;;;;23.70;16.13;;;3.50;95.70;;;;;;5064942;28;21101;-47
2021/12/18 02:54:40;;;;;;;26.83;16.03;;;3.50;95.80;;;;;;5073082;28;20482;-47
2021/12/18 02:57:08;;;;;;;22.20;14.93;;;3.50;96.00;;;;;;5065753;28;20947;-47
2021/12/18 02:59:43;;;;;;;58.13;29.13;;;3.50;96.20;;;;;;5068625;28;20482;-46
2021/12/18 03:02:10;;;;;;;46.73;27.60;;;3.50;96.50;;;;;;5042214;28;20472;-47
2021/12/18 03:04:38;;;;;;;44.60;25.63;;;3.50;96.30;;;;;;5074055;28;20486;-46
2021/12/18 03:07:07;;;;;;;59.60;27.10;;;3.50;96.60;;;;;;5070778;28;20481;-47
2021/12/18 03:23:40;;;;;;;51.37;26.80;;;3.70;97.90;;;;;;5069161;28;20935;-47
2021/12/18 03:26:07;;;;;;;48.80;25.70;;;3.80;98.00;;;;;;5093067;28;20504;-47
2021/12/18 03:28:35;;;;;;;40.53;20.00;;;3.90;98.10;;;;;;5077631;28;20500;-46
2021/12/18 03:31:01;;;;;;;40.23;20.00;;;3.90;98.20;;;;;;5077449;28;20482;-47
2021/12/18 03:33:28;;;;;;;36.63;20.17;;;4.00;98.60;;;;;;5063737;27;20481;-47
2021/12/18 03:35:55;;;;;;;39.10;20.23;;;4.00;98.60;;;;;;5087803;27;20495;-47
2021/12/18 03:38:22;;;;;;;43.97;21.10;;;4.10;98.60;;;;;;5079179;28;20498;-47
2021/12/18 03:40:49;;;;;;;45.73;21.57;;;4.10;98.50;;;;;;5080134;28;20889;-47
2021/12/18 03:43:16;;;;;;;38.57;22.17;;;4.20;98.40;;;;;;5083465;28;20486;-47
2021/12/18 03:45:44;;;;;;;39.57;22.50;;;4.20;98.70;;;;;;5080065;28;20789;-47
2021/12/18 03:48:11;;;;;;;53.00;21.37;;;4.30;98.90;;;;;;5076405;28;20966;-47
2021/12/18 03:50:38;;;;;;;38.57;20.00;;;4.30;99.00;;;;;;5079060;28;20482;-47
2021/12/18 03:53:05;;;;;;;43.30;20.70;;;4.40;99.10;;;;;;5081683;28;20509;-47
2021/12/18 03:55:32;;;;;;;40.80;21.13;;;4.40;99.00;;;;;;5083844;28;20478;-46
2021/12/18 03:57:58;;;;;;;32.00;19.90;;;4.50;99.10;;;;;;5079303;28;20526;-47
2021/12/18 04:00:25;;;;;;;39.70;19.77;;;4.60;98.90;;;;;;5084982;28;20532;-46
2021/12/18 04:02:53;;;;;;;32.70;18.90;;;4.60;99.10;;;;;;5081298;28;20490;-47
2021/12/18 04:05:20;;;;;;;36.07;19.10;;;4.70;99.30;;;;;;5080191;28;20484;-47
2021/12/18 04:07:49;;;;;;;36.30;19.17;;;4.80;99.50;;;;;;5080070;28;20493;-47
2021/12/18 04:10:18;;;;;;;37.83;21.80;;;4.80;99.60;;;;;;5077701;28;20518;-46
2021/12/18 04:12:45;;;;;;;36.70;18.83;;;4.90;99.90;;;;;;5079182;28;20567;-47
2021/12/18 04:15:12;;;;;;;40.03;19.90;;;4.90;99.70;;;;;;5078859;28;20484;-48
2021/12/18 04:17:39;;;;;;;39.47;19.20;;;5.00;99.70;;;;;;5076588;28;20903;-47
2021/12/18 04:20:09;;;;;;;41.93;19.23;;;5.00;99.70;;;;;;5085071;28;21533;-46
2021/12/18 04:22:36;;;;;;;29.17;18.47;;;5.00;99.60;;;;;;5074706;28;20498;-46
2021/12/18 04:25:03;;;;;;;35.93;17.87;;;5.10;99.70;;;;;;5088719;28;20491;-46
2021/12/18 04:27:30;;;;;;;30.43;17.10;;;5.20;99.70;;;;;;5077757;28;20544;-46
2021/12/18 04:29:57;;;;;;;34.40;17.60;;;5.20;99.50;;;;;;5063990;28;20493;-46
2021/12/18 04:32:24;;;;;;;33.63;19.07;;;5.20;99.70;;;;;;5090496;28;20880;-46
2021/12/18 04:34:50;;;;;;;39.73;20.70;;;5.30;99.70;;;;;;5080143;28;21051;-46
2021/12/18 04:37:19;;;;;;;40.50;20.33;;;5.30;99.60;;;;;;5048508;28;20471;-46
2021/12/18 04:39:45;;;;;;;32.70;18.30;;;5.30;99.70;;;;;;5076483;28;21035;-46
2021/12/18 04:42:12;;;;;;;36.17;18.87;;;5.30;99.70;;;;;;5080814;28;20480;-47
2021/12/18 04:44:39;;;;;;;39.03;19.57;;;5.40;99.70;;;;;;5078558;28;20535;-46
2021/12/18 04:47:06;;;;;;;27.23;17.30;;;5.40;99.70;;;;;;5079516;28;20516;-47
2021/12/18 04:49:33;;;;;;;40.27;18.80;;;5.50;99.80;;;;;;5078289;28;20540;-46
2021/12/18 04:52:02;;;;;;;34.17;16.47;;;5.50;99.80;;;;;;5079593;28;20482;-46
2021/12/18 04:54:30;;;;;;;36.07;19.93;;;5.60;99.80;;;;;;5073693;28;20482;-47
2021/12/18 04:56:56;;;;;;;38.50;20.60;;;5.60;99.80;;;;;;5067635;28;21356;-46
2021/12/18 04:59:23;;;;;;;32.90;18.53;;;5.70;99.70;;;;;;5073619;28;20486;-46
2021/12/18 05:01:51;;;;;;;38.47;19.70;;;5.70;99.70;;;;;;5078581;28;20532;-46
2021/12/18 05:04:19;;;;;;;34.67;19.50;;;5.70;99.50;;;;;;5072305;28;20508;-46
2021/12/18 05:06:47;;;;;;;34.17;19.10;;;5.80;99.50;;;;;;5076927;28;20513;-47
2021/12/18 05:09:16;;;;;;;34.33;19.50;;;5.80;99.40;;;;;;5078054;28;20484;-47
2021/12/18 05:11:45;;;;;;;40.63;18.60;;;5.80;99.40;;;;;;5079899;28;20830;-46
2021/12/18 05:14:12;;;;;;;30.73;17.67;;;5.80;99.50;;;;;;5075890;28;20478;-48
2021/12/18 05:16:39;;;;;;;38.80;20.40;;;5.80;99.40;;;;;;5072522;28;20498;-46
2021/12/18 05:19:06;;;;;;;34.00;18.93;;;5.80;99.50;;;;;;5089494;28;20472;-46
2021/12/18 05:21:33;;;;;;;36.63;20.07;;;5.80;99.30;;;;;;5076222;28;20478;-49
2021/12/18 05:23:59;;;;;;;25.10;15.50;;;5.80;99.30;;;;;;5084399;28;20474;-46
2021/12/18 05:26:26;;;;;;;36.87;19.40;;;5.80;99.30;;;;;;5076360;28;20487;-46
2021/12/18 05:28:54;;;;;;;30.53;16.93;;;5.80;99.30;;;;;;5083580;28;20898;-46
2021/12/18 05:31:21;;;;;;;33.20;17.30;;;5.80;99.30;;;;;;5080947;28;20540;-47
2021/12/18 05:33:52;;;;;;;30.90;17.63;;;5.80;99.40;;;;;;5076962;28;20482;-46
2021/12/18 05:39:05;;;;;;;30.50;17.00;;;5.80;99.60;;;;;;5077511;28;20494;-46
2021/12/18 05:41:31;;;;;;;28.77;16.97;;;5.90;99.50;;;;;;5089424;28;20828;-46
2021/12/18 05:44:00;;;;;;;27.60;17.13;;;5.90;99.90;;;;;;5081691;28;20486;-47
2021/12/18 05:46:27;;;;;;;34.77;17.67;;;5.90;99.60;;;;;;5077398;28;20471;-46
2021/12/18 05:48:54;;;;;;;27.43;15.70;;;5.90;99.60;;;;;;5083371;28;20541;-47
2021/12/18 05:51:21;;;;;;;27.83;16.07;;;5.90;99.40;;;;;;5081548;28;20480;-46
2021/12/18 05:53:47;;;;;;;29.87;17.40;;;5.90;99.50;;;;;;5081549;28;20474;-49
2021/12/18 05:56:14;;;;;;;29.00;17.30;;;5.90;99.50;;;;;;5078748;28;21018;-47
2021/12/18 05:58:43;;;;;;;30.77;18.40;;;5.90;99.60;;;;;;5079841;28;20481;-46
2021/12/18 06:01:13;;;;;;;31.00;16.63;;;5.90;99.50;;;;;;5082239;28;20484;-46
2021/12/18 06:03:40;;;;;;;27.30;16.33;;;6.00;99.50;;;;;;5077734;28;20488;-47
2021/12/18 06:06:07;;;;;;;29.83;17.77;;;6.00;99.50;;;;;;5073067;28;20551;-47
2021/12/18 06:08:35;;;;;;;26.23;15.93;;;6.00;99.50;;;;;;5075602;28;20484;-47
2021/12/18 06:11:08;;;;;;;27.37;16.17;;;6.00;99.40;;;;;;5080573;28;20569;-46
2021/12/18 06:13:36;;;;;;;25.37;15.63;;;6.00;99.40;;;;;;5077003;28;21305;-46
2021/12/18 06:16:05;;;;;;;28.03;16.20;;;6.10;99.40;;;;;;5079224;28;20597;-46
2021/12/18 06:18:34;;;;;;;27.50;17.13;;;6.10;99.40;;;;;;5077281;28;20989;-46
2021/12/18 06:21:01;;;;;;;25.53;15.90;;;6.10;99.40;;;;;;5083197;28;20479;-46
2021/12/18 06:23:28;;;;;;;25.43;15.80;;;6.10;99.20;;;;;;5080531;28;20483;-46
2021/12/18 06:25:55;;;;;;;35.20;17.57;;;6.10;99.20;;;;;;5050177;28;20483;-46
2021/12/18 06:28:22;;;;;;;30.70;15.83;;;6.10;99.20;;;;;;5077015;28;20852;-46
2021/12/18 06:30:49;;;;;;;28.27;16.40;;;6.10;99.20;;;;;;5083816;28;20476;-46
2021/12/18 06:33:16;;;;;;;22.00;12.20;;;6.10;99.20;;;;;;5083743;28;20480;-46
2021/12/18 06:35:44;;;;;;;26.67;14.93;;;6.00;99.20;;;;;;5077785;28;20495;-45
2021/12/18 06:38:10;;;;;;;23.20;14.10;;;6.00;99.40;;;;;;5079019;28;20481;-45
2021/12/18 06:40:37;;;;;;;29.53;16.60;;;6.00;99.40;;;;;;5075634;28;21046;-46
2021/12/18 06:43:04;;;;;;;28.90;17.63;;;6.00;99.60;;;;;;5081778;28;21357;-47
2021/12/18 06:45:31;;;;;;;31.60;19.40;;;6.00;99.60;;;;;;5070585;28;20475;-46
2021/12/18 06:47:58;;;;;;;25.73;14.70;;;6.10;99.60;;;;;;5075637;28;20841;-46
2021/12/18 06:50:24;;;;;;;24.30;13.63;;;6.00;99.40;;;;;;5073122;28;20540;-46
2021/12/18 06:52:53;;;;;;;21.30;13.13;;;6.10;99.40;;;;;;5072162;28;20876;-46
2021/12/18 06:55:20;;;;;;;23.43;14.00;;;6.00;99.40;;;;;;5073385;28;20484;-46
2021/12/18 06:57:46;;;;;;;25.03;14.37;;;6.00;99.50;;;;;;5081545;28;20498;-47
2021/12/18 07:00:15;;;;;;;24.60;14.93;;;6.00;99.60;;;;;;5080557;28;20967;-47
2021/12/18 07:02:43;;;;;;;32.97;17.97;;;6.00;99.70;;;;;;5079108;28;20479;-46
2021/12/18 07:05:11;;;;;;;29.07;16.70;;;6.00;99.70;;;;;;5045338;28;20487;-46
2021/12/18 07:07:38;;;;;;;33.37;17.63;;;6.10;99.70;;;;;;5081016;28;20541;-46
2021/12/18 07:10:08;;;;;;;25.97;15.00;;;6.10;99.60;;;;;;5082802;28;20535;-46
2021/12/18 07:12:35;;;;;;;29.67;15.60;;;6.10;99.60;;;;;;5076974;28;20493;-46
2021/12/18 07:15:02;;;;;;;24.20;13.80;;;6.10;99.60;;;;;;5091279;28;20563;-46
2021/12/18 07:17:29;;;;;;;20.57;11.77;;;6.10;99.50;;;;;;5076888;28;20540;-46
2021/12/18 07:19:57;;;;;;;26.03;14.43;;;6.10;99.50;;;;;;5077996;28;20475;-46
2021/12/18 07:22:23;;;;;;;24.93;13.77;;;6.10;99.50;;;;;;5086262;28;20624;-47
2021/12/18 07:24:50;;;;;;;24.77;15.03;;;6.10;99.50;;;;;;5087103;28;20528;-48
2021/12/18 07:27:18;;;;;;;27.13;16.70;;;6.10;99.60;;;;;;5075332;28;20487;-47
2021/12/18 07:29:45;;;;;;;35.93;17.20;;;6.10;99.70;;;;;;5080113;28;20463;-46
2021/12/18 07:32:12;;;;;;;31.47;16.87;;;6.10;99.60;;;;;;5076402;28;20483;-46
2021/12/18 07:34:38;;;;;;;29.00;16.00;;;6.20;99.60;;;;;;5084992;28;20555;-46
2021/12/18 07:37:05;;;;;;;25.33;15.43;;;6.10;99.50;;;;;;5076765;28;20463;-47
2021/12/18 07:39:32;;;;;;;30.57;15.43;;;6.10;99.60;;;;;;5077085;28;20488;-46
2021/12/18 07:41:59;;;;;;;24.83;14.23;;;6.20;99.60;;;;;;5078137;28;20538;-47
2021/12/18 07:44:27;;;;;;;31.37;14.47;;;6.20;99.50;;;;;;5069620;28;20492;-46
2021/12/18 07:46:54;;;;;;;27.70;16.30;;;6.20;99.60;;;;;;5083791;28;20525;-47
2021/12/18 07:49:20;;;;;;;31.10;17.13;;;6.20;99.70;;;;;;5067693;28;20489;-46
2021/12/18 07:51:47;;;;;;;27.23;16.00;;;6.20;99.70;;;;;;5078348;28;20486;-46
2021/12/18 07:54:14;;;;;;;23.90;14.83;;;6.20;99.60;;;;;;5072936;28;20485;-47
2021/12/18 07:56:40;;;;;;;28.57;14.80;;;6.20;99.70;;;;;;5074088;28;20487;-47
2021/12/18 07:59:07;;;;;;;28.50;16.63;;;6.30;99.70;;;;;;5079837;28;20496;-46
2021/12/18 08:01:35;;;;;;;27.87;16.80;;;6.30;99.70;;;;;;5071555;28;20548;-47
2021/12/18 08:04:02;;;;;;;26.33;16.33;;;6.30;99.80;;;;;;5064814;28;20490;-46
2021/12/18 08:06:29;;;;;;;28.63;14.97;;;6.40;99.70;;;;;;5068280;28;20482;-47
2021/12/18 08:08:56;;;;;;;34.30;17.50;;;6.40;99.60;;;;;;5078342;28;20476;-47
2021/12/18 08:11:23;;;;;;;31.00;15.47;;;6.40;99.70;;;;;;5071369;28;20511;-46
2021/12/18 08:13:49;;;;;;;31.27;17.30;;;6.30;99.60;;;;;;5076582;28;20479;-46
2021/12/18 08:16:16;;;;;;;30.80;16.97;;;6.40;99.80;;;;;;5069263;28;20533;-47
2021/12/18 08:18:44;;;;;;;23.57;15.20;;;6.40;99.80;;;;;;5076239;28;20569;-46
2021/12/18 08:21:11;;;;;;;30.63;16.67;;;6.50;99.70;;;;;;5072265;28;20487;-47
2021/12/18 08:23:38;;;;;;;27.10;15.43;;;6.40;99.50;;;;;;5075542;28;20486;-46
2021/12/18 08:26:04;;;;;;;30.50;15.83;;;6.40;99.50;;;;;;5076806;28;20472;-46
2021/12/18 08:28:31;;;;;;;29.93;16.07;;;6.40;99.60;;;;;;5071512;28;20493;-46
2021/12/18 08:30:58;;;;;;;35.10;17.23;;;6.40;99.60;;;;;;5077376;28;20547;-47
2021/12/18 08:33:25;;;;;;;32.80;18.07;;;6.40;99.70;;;;;;5082019;28;20478;-46
2021/12/18 08:35:53;;;;;;;28.97;16.83;;;6.40;99.60;;;;;;5077030;28;20484;-47
2021/12/18 08:38:20;;;;;;;29.77;15.63;;;6.40;99.80;;;;;;5068552;28;20490;-46
2021/12/18 08:40:47;;;;;;;31.77;16.80;;;6.40;99.60;;;;;;5079537;28;20525;-46
2021/12/18 08:43:14;;;;;;;28.63;14.47;;;6.40;99.60;;;;;;5075528;28;20497;-46
2021/12/18 08:45:40;;;;;;;25.60;14.87;;;6.50;99.60;;;;;;5079244;28;20488;-46
2021/12/18 08:48:07;;;;;;;27.10;15.30;;;6.40;99.60;;;;;;5079994;28;20486;-46
2021/12/18 08:50:34;;;;;;;32.30;16.90;;;6.50;99.50;;;;;;5074122;28;20483;-46
2021/12/18 08:53:02;;;;;;;53.60;15.90;;;6.40;99.50;;;;;;5094852;28;20494;-46
2021/12/18 08:55:29;;;;;;;33.50;18.20;;;6.40;99.50;;;;;;5082860;28;20479;-46
2021/12/18 08:57:56;;;;;;;30.13;17.77;;;6.50;99.60;;;;;;5084610;28;21261;-46
2021/12/18 09:00:24;;;;;;;31.70;18.00;;;6.60;99.70;;;;;;5082527;28;20507;-46
2021/12/18 09:02:54;;;;;;;28.97;14.70;;;6.60;99.60;;;;;;5080629;28;20503;-46
2021/12/18 09:05:22;;;;;;;30.60;15.27;;;6.60;99.50;;;;;;5071993;28;20580;-46
2021/12/18 09:07:49;;;;;;;30.43;16.90;;;6.60;99.40;;;;;;5078576;28;20468;-46
2021/12/18 09:10:18;;;;;;;27.77;16.13;;;6.60;99.40;;;;;;5082970;28;20497;-47
2021/12/18 09:12:45;;;;;;;22.83;15.23;;;6.60;99.40;;;;;;5079815;28;20501;-46
2021/12/18 09:15:12;;;;;;;32.30;16.10;;;6.70;99.40;;;;;;5081502;28;20997;-46
2021/12/18 09:17:39;;;;;;;29.80;15.47;;;6.70;99.30;;;;;;5081574;28;20483;-46
2021/12/18 09:20:07;;;;;;;31.37;16.93;;;6.80;99.10;;;;;;5080128;28;20483;-46
2021/12/18 09:22:34;;;;;;;30.60;16.80;;;6.80;99.20;;;;;;5084146;28;20523;-47
2021/12/18 09:25:03;;;;;;;28.40;15.60;;;6.80;99.20;;;;;;5082512;28;20494;-46
2021/12/18 09:27:31;;;;;;;30.13;17.20;;;6.90;99.20;;;;;;5081786;28;20475;-46
2021/12/18 09:29:57;;;;;;;27.20;15.80;;;6.90;99.10;;;;;;5054502;28;20478;-47
2021/12/18 09:32:24;;;;;;;29.73;15.60;;;6.90;99.00;;;;;;5081707;28;20479;-46
2021/12/18 09:34:51;;;;;;;25.30;15.93;;;6.90;99.10;;;;;;5080550;28;20484;-46
2021/12/18 09:37:18;;;;;;;27.10;15.33;;;7.00;99.10;;;;;;5070184;28;20549;-46
2021/12/18 09:39:45;;;;;;;28.10;17.23;;;6.90;99.00;;;;;;5066335;28;20489;-46
2021/12/18 09:42:11;;;;;;;27.70;15.50;;;7.00;99.30;;;;;;5078436;28;20471;-47
2021/12/18 09:44:39;;;;;;;29.53;15.53;;;7.00;99.20;;;;;;5082817;28;20488;-48
2021/12/18 09:47:06;;;;;;;28.13;15.47;;;7.10;99.10;;;;;;5087213;28;20479;-46
2021/12/18 09:49:34;;;;;;;33.30;15.43;;;7.10;99.00;;;;;;5077290;28;20466;-46
2021/12/18 09:52:02;;;;;;;24.73;15.77;;;7.20;98.80;;;;;;5085072;28;20487;-46
2021/12/18 09:54:29;;;;;;;29.03;16.57;;;7.20;98.80;;;;;;5078883;28;20484;-46
2021/12/18 09:56:55;;;;;;;30.13;15.33;;;7.30;98.90;;;;;;5083214;28;20492;-46
2021/12/18 09:59:22;;;;;;;27.80;14.47;;;7.30;98.60;;;;;;5068365;28;20487;-48
2021/12/18 10:01:51;;;;;;;23.23;13.80;;;7.30;98.70;;;;;;5073682;28;20931;-46
2021/12/18 10:04:28;;;;;;;23.13;13.37;;;7.30;98.50;;;;;;5082648;28;20488;-46
2021/12/18 10:06:56;;;;;;;22.13;14.33;;;7.30;98.20;;;;;;5073445;28;20482;-46
2021/12/18 10:09:35;;;;;;;23.07;13.00;;;7.30;98.50;;;;;;5083532;28;20574;-46
2021/12/18 10:12:12;;;;;;;20.87;12.77;;;7.30;98.30;;;;;;5072094;28;20868;-46
2021/12/18 10:14:42;;;;;;;18.10;12.40;;;7.30;98.20;;;;;;5076833;28;20473;-46
2021/12/18 10:17:30;;;;;;;21.00;12.43;;;7.30;98.30;;;;;;5071964;28;20523;-47
2021/12/18 10:20:16;;;;;;;24.17;13.70;;;7.30;98.20;;;;;;5058463;28;20527;-47
2021/12/18 10:22:47;;;;;;;22.27;14.00;;;7.30;98.30;;;;;;5077223;28;20480;-46
2021/12/18 10:25:15;;;;;;;18.73;12.00;;;7.30;98.30;;;;;;5079171;28;20476;-48
2021/12/18 10:27:44;;;;;;;18.73;12.27;;;7.30;98.20;;;;;;5084867;28;22075;-46
2021/12/18 10:30:16;;;;;;;21.17;13.20;;;7.30;98.20;;;;;;5068012;28;20484;-46
2021/12/18 10:32:56;;;;;;;22.10;14.43;;;7.30;98.20;;;;;;5077733;28;20496;-46
2021/12/18 10:35:23;;;;;;;21.53;13.70;;;7.20;98.10;;;;;;5072913;28;20485;-46
2021/12/18 10:37:49;;;;;;;20.37;13.90;;;7.20;98.30;;;;;;5089019;27;20481;-46
2021/12/18 10:40:16;;;;;;;18.40;11.57;;;7.20;98.30;;;;;;5075999;28;20512;-46
2021/12/18 10:42:46;;;;;;;19.30;11.17;;;7.20;98.10;;;;;;5082772;28;20487;-46
2021/12/18 10:45:18;;;;;;;19.40;12.07;;;7.20;98.10;;;;;;5073354;28;20852;-47
2021/12/18 10:47:56;;;;;;;22.23;12.20;;;7.20;97.90;;;;;;5086446;28;20489;-46
2021/12/18 10:50:26;;;;;;;21.10;13.07;;;7.10;98.00;;;;;;5067166;28;20494;-46
2021/12/18 10:52:55;;;;;;;14.50;9.80;;;7.20;98.20;;;;;;5060719;28;20492;-46
2021/12/18 10:55:28;;;;;;;18.57;12.00;;;7.10;97.90;;;;;;5058738;28;20485;-46
2021/12/18 10:57:55;;;;;;;16.53;10.60;;;7.10;98.10;;;;;;5084797;28;20507;-46
2021/12/18 11:00:32;;;;;;;14.23;9.90;;;7.10;98.00;;;;;;5066750;28;21064;-48
2021/12/18 11:03:13;;;;;;;19.80;12.20;;;7.10;98.00;;;;;;5087591;28;20489;-46
2021/12/18 11:05:40;;;;;;;19.57;12.17;;;7.10;98.30;;;;;;5066776;28;20968;-46
2021/12/18 11:08:08;;;;;;;21.13;13.60;;;7.10;98.30;;;;;;5083109;28;21012;-46
2021/12/18 11:10:53;;;;;;;16.53;10.00;;;7.10;98.20;;;;;;5052018;28;20503;-47
2021/12/18 11:16:05;;;;;;;23.80;12.30;;;7.10;98.20;;;;;;5078802;28;20530;-46
2021/12/18 11:18:35;;;;;;;21.80;12.50;;;7.10;98.10;;;;;;5078073;28;20489;-46
2021/12/18 11:21:02;;;;;;;25.37;14.70;;;7.10;98.10;;;;;;5081047;28;20464;-47
2021/12/18 11:23:40;;;;;;;19.00;13.20;;;7.20;98.30;;;;;;5074293;28;20491;-46
2021/12/18 11:26:08;;;;;;;25.10;13.73;;;7.30;98.30;;;;;;5083674;28;20566;-47
2021/12/18 11:28:40;;;;;;;20.63;11.33;;;7.30;98.30;;;;;;5079122;28;20537;-46
2021/12/18 11:31:06;;;;;;;17.00;11.60;;;7.30;98.00;;;;;;5081579;28;20533;-46
2021/12/18 11:33:35;;;;;;;24.80;14.10;;;7.30;98.00;;;;;;5077515;28;20480;-47
2021/12/18 11:36:03;;;;;;;19.70;11.97;;;7.30;98.20;;;;;;5076248;28;20492;-47
2021/12/18 11:38:31;;;;;;;19.17;13.30;;;7.30;98.10;;;;;;5079475;28;20472;-47
2021/12/18 11:40:59;;;;;;;23.53;14.00;;;7.30;98.10;;;;;;5082355;28;20500;-47
2021/12/18 11:43:35;;;;;;;21.20;12.07;;;7.30;98.00;;;;;;5082836;28;20498;-47
2021/12/18 11:46:04;;;;;;;16.23;10.97;;;7.30;98.00;;;;;;5078827;28;20492;-46
2021/12/18 11:48:53;;;;;;;16.20;11.23;;;7.20;98.00;;;;;;5073189;28;20553;-46
2021/12/18 11:51:20;;;;;;;21.17;13.27;;;7.20;98.00;;;;;;5075003;28;20480;-46
2021/12/18 11:53:46;;;;;;;20.87;12.20;;;7.20;98.20;;;;;;5084671;28;20529;-47
2021/12/18 11:56:14;;;;;;;21.07;12.50;;;7.10;98.20;;;;;;5072047;28;20604;-47
2021/12/18 11:58:43;;;;;;;21.90;13.57;;;7.20;98.10;;;;;;5062936;28;22683;-46
2021/12/18 12:01:15;;;;;;;23.60;12.63;;;7.20;98.40;;;;;;5075184;28;20507;-46
2021/12/18 12:03:43;;;;;;;19.70;11.73;;;7.20;98.30;;;;;;5073338;28;20481;-47
2021/12/18 12:06:30;;;;;;;24.57;13.50;;;7.20;98.20;;;;;;5089226;28;20505;-47
2021/12/18 12:09:26;;;;;;;17.27;10.20;;;7.20;98.20;;;;;;5072796;28;21293;-46
2021/12/18 12:11:56;;;;;;;21.87;12.40;;;7.10;98.30;;;;;;5069342;28;20478;-46
2021/12/18 12:14:24;;;;;;;18.33;9.43;;;7.00;98.50;;;;;;5071179;28;20494;-46
2021/12/18 12:17:11;;;;;;;25.83;12.13;;;7.00;98.50;;;;;;5069547;28;20614;-46
2021/12/18 12:19:49;;;;;;;23.37;12.60;;;6.90;98.60;;;;;;5083737;28;20980;-47
2021/12/18 12:22:40;;;;;;;22.63;12.17;;;6.90;98.90;;;;;;5070603;28;20472;-46
2021/12/18 12:25:09;;;;;;;12.47;7.43;;;6.90;98.90;;;;;;5063700;28;20968;-46
2021/12/18 12:27:38;;;;;;;19.93;11.27;;;6.70;98.70;;;;;;5079595;28;20482;-46
2021/12/18 12:30:08;;;;;;;18.00;10.10;;;6.80;99.10;;;;;;5062991;28;20572;-46
2021/12/18 12:32:36;;;;;;;21.00;9.33;;;6.70;99.10;;;;;;5070434;28;21128;-46
2021/12/18 12:35:09;;;;;;;20.53;10.00;;;6.60;99.10;;;;;;5075359;28;20480;-47
2021/12/18 12:37:42;;;;;;;19.53;10.37;;;6.60;99.40;;;;;;5073566;28;20472;-46
2021/12/18 12:40:12;;;;;;;15.97;9.70;;;6.60;99.40;;;;;;5069516;28;20483;-46
2021/12/18 12:42:42;;;;;;;22.63;10.90;;;6.60;99.20;;;;;;5074494;28;20529;-46
2021/12/18 12:45:13;;;;;;;30.93;14.90;;;6.60;99.50;;;;;;5079635;28;20517;-46
2021/12/18 12:47:41;;;;;;;22.30;11.83;;;6.60;99.70;;;;;;5077447;28;20548;-45
2021/12/18 12:50:29;;;;;;;16.60;9.50;;;6.60;99.60;;;;;;5073244;28;20488;-46
2021/12/18 12:52:59;;;;;;;23.80;11.90;;;6.60;99.40;;;;;;5075689;28;20977;-46
2021/12/18 12:55:28;;;;;;;16.40;10.07;;;6.70;99.80;;;;;;5073008;28;20517;-46
2021/12/18 12:57:57;;;;;;;21.70;10.20;;;6.70;99.70;;;;;;5074233;28;20477;-46
2021/12/18 13:00:39;;;;;;;18.40;11.43;;;6.60;99.60;;;;;;5067755;28;20503;-47
2021/12/18 13:03:13;;;;;;;15.37;8.43;;;6.60;99.70;;;;;;5074265;28;20495;-46
2021/12/18 13:05:49;;;;;;;24.67;11.70;;;6.60;99.70;;;;;;5071527;28;20789;-46
2021/12/18 13:08:18;;;;;;;26.03;13.90;;;6.60;99.80;;;;;;5078026;28;20503;-46
2021/12/18 13:10:47;;;;;;;24.30;14.23;;;6.60;99.90;;;;;;5078163;28;20466;-46
2021/12/18 13:13:17;;;;;;;24.50;14.07;;;6.70;99.90;;;;;;5066518;28;20502;-47
2021/12/18 13:15:49;;;;;;;23.97;12.50;;;6.70;99.90;;;;;;5072188;28;20483;-46
2021/12/18 13:18:17;;;;;;;27.47;15.00;;;6.70;99.80;;;;;;5062697;28;20476;-46
2021/12/18 13:20:45;;;;;;;26.77;15.40;;;6.80;99.90;;;;;;5067290;28;20555;-46
2021/12/18 13:23:17;;;;;;;25.87;15.17;;;6.90;99.80;;;;;;5077252;28;20526;-46
2021/12/18 13:25:49;;;;;;;25.00;15.37;;;6.80;99.50;;;;;;5073930;28;20564;-47